sensor_id;sensor_type;location;lat;lon;timestamp;temperature;humidity
4279;DHT22;2153;47.744;10.580;2023-06-22T00:02:00;17.50;99.90
4279;DHT22;2153;47.744;10.580;2023-06-22T00:04:27;17.50;99.90
4279;DHT22;2153;47.744;10.580;2023-06-22T00:06:53;17.40;99.90
4279;DHT22;2153;47.744;10.580;2023-06-22T00:09:20;17.40;99.90
4279;DHT22;2153;47.744;10.580;2023-06-22T00:11:48;17.40;99.90
4279;DHT22;2153;47.744;10.580;2023-06-22T00:14:15;17.40;99.90
4279;DHT22;2153;47.744;10.580;2023-06-22T00:16:41;17.40;99.90
4279;DHT22;2153;47.744;10.580;2023-06-22T00:19:09;17.30;99.90
4279;DHT22;2153;47.744;10.580;2023-06-22T00:21:37;17.30;99.90
4279;DHT22;2153;47.744;10.580;2023-06-22T00:24:04;17.30;99.90
4279;DHT22;2153;47.744;10.580;2023-06-22T00:26:31;17.20;99.90
4279;DHT22;2153;47.744;10.580;2023-06-22T00:28:59;17.20;99.90
4279;DHT22;2153;47.744;10.580;2023-06-22T00:31:26;17.10;99.90
4279;DHT22;2153;47.744;10.580;2023-06-22T00:33:52;17.10;99.90
4279;DHT22;2153;47.744;10.580;2023-06-22T00:36:19;17.10;99.90
4279;DHT22;2153;47.744;10.580;2023-06-22T00:38:46;17.00;99.90
4279;DHT22;2153;47.744;10.580;2023-06-22T00:41:12;16.90;99.90
4279;DHT22;2153;47.744;10.580;2023-06-22T00:43:39;16.90;99.90
4279;DHT22;2153;47.744;10.580;2023-06-22T00:46:08;16.80;99.90
4279;DHT22;2153;47.744;10.580;2023-06-22T00:48:35;16.80;99.90
4279;DHT22;2153;47.744;10.580;2023-06-22T00:51:03;16.80;99.90
4279;DHT22;2153;47.744;10.580;2023-06-22T00:53:30;16.60;99.90
4279;DHT22;2153;47.744;10.580;2023-06-22T00:56:00;16.50;99.90
4279;DHT22;2153;47.744;10.580;2023-06-22T00:58:28;16.50;99.90
4279;DHT22;2153;47.744;10.580;2023-06-22T01:00:55;16.50;99.90
4279;DHT22;2153;47.744;10.580;2023-06-22T01:03:24;16.50;99.90
4279;DHT22;2153;47.744;10.580;2023-06-22T01:05:51;16.60;99.90
4279;DHT22;2153;47.744;10.580;2023-06-22T01:08:28;16.60;99.90
4279;DHT22;2153;47.744;10.580;2023-06-22T01:11:04;16.50;99.90
4279;DHT22;2153;47.744;10.580;2023-06-22T01:13:37;16.40;99.90
4279;DHT22;2153;47.744;10.580;2023-06-22T01:16:08;16.20;99.90
4279;DHT22;2153;47.744;10.580;2023-06-22T01:18:41;16.20;99.90
4279;DHT22;2153;47.744;10.580;2023-06-22T01:21:12;16.00;99.90
4279;DHT22;2153;47.744;10.580;2023-06-22T01:23:51;16.00;99.90
4279;DHT22;2153;47.744;10.580;2023-06-22T01:26:25;16.00;99.90
4279;DHT22;2153;47.744;10.580;2023-06-22T01:28:57;16.00;99.90
4279;DHT22;2153;47.744;10.580;2023-06-22T01:31:27;16.00;99.90
4279;DHT22;2153;47.744;10.580;2023-06-22T01:33:58;16.00;99.90
4279;DHT22;2153;47.744;10.580;2023-06-22T01:36:26;16.00;99.90
4279;DHT22;2153;47.744;10.580;2023-06-22T01:38:53;16.00;99.90
4279;DHT22;2153;47.744;10.580;2023-06-22T01:41:20;16.10;99.90
4279;DHT22;2153;47.744;10.580;2023-06-22T01:43:48;16.00;99.90
4279;DHT22;2153;47.744;10.580;2023-06-22T01:46:18;16.00;99.90
4279;DHT22;2153;47.744;10.580;2023-06-22T01:48:46;15.80;99.90
4279;DHT22;2153;47.744;10.580;2023-06-22T01:51:13;15.70;99.90
4279;DHT22;2153;47.744;10.580;2023-06-22T01:53:40;15.70;99.90
4279;DHT22;2153;47.744;10.580;2023-06-22T01:56:07;15.60;99.90
4279;DHT22;2153;47.744;10.580;2023-06-22T01:58:37;15.50;99.90
4279;DHT22;2153;47.744;10.580;2023-06-22T02:01:10;15.50;99.90
4279;DHT22;2153;47.744;10.580;2023-06-22T02:03:41;15.50;99.90
4279;DHT22;2153;47.744;10.580;2023-06-22T02:06:14;15.50;99.90
4279;DHT22;2153;47.744;10.580;2023-06-22T02:08:47;15.50;99.90
4279;DHT22;2153;47.744;10.580;2023-06-22T02:11:18;15.60;99.90
4279;DHT22;2153;47.744;10.580;2023-06-22T02:13:45;15.50;99.90
4279;DHT22;2153;47.744;10.580;2023-06-22T02:16:12;15.50;99.90
4279;DHT22;2153;47.744;10.580;2023-06-22T02:18:46;15.40;99.90
4279;DHT22;2153;47.744;10.580;2023-06-22T02:21:12;15.30;99.90
4279;DHT22;2153;47.744;10.580;2023-06-22T02:23:39;15.30;99.90
4279;DHT22;2153;47.744;10.580;2023-06-22T02:26:06;15.30;99.90
4279;DHT22;2153;47.744;10.580;2023-06-22T02:28:32;15.20;99.90
4279;DHT22;2153;47.744;10.580;2023-06-22T02:30:59;15.20;99.90
4279;DHT22;2153;47.744;10.580;2023-06-22T02:33:26;15.20;99.90
4279;DHT22;2153;47.744;10.580;2023-06-22T02:35:54;15.20;99.90
4279;DHT22;2153;47.744;10.580;2023-06-22T02:38:20;15.30;99.90
4279;DHT22;2153;47.744;10.580;2023-06-22T02:40:49;15.10;99.90
4279;DHT22;2153;47.744;10.580;2023-06-22T02:43:16;15.10;99.90
4279;DHT22;2153;47.744;10.580;2023-06-22T02:45:43;14.90;99.90
4279;DHT22;2153;47.744;10.580;2023-06-22T02:48:10;14.80;99.90
4279;DHT22;2153;47.744;10.580;2023-06-22T02:50:37;14.80;99.90
4279;DHT22;2153;47.744;10.580;2023-06-22T02:53:05;14.80;99.90
4279;DHT22;2153;47.744;10.580;2023-06-22T02:55:31;14.80;99.90
4279;DHT22;2153;47.744;10.580;2023-06-22T02:57:58;14.80;99.90
4279;DHT22;2153;47.744;10.580;2023-06-22T03:00:25;14.80;99.90
4279;DHT22;2153;47.744;10.580;2023-06-22T03:02:55;14.80;99.90
4279;DHT22;2153;47.744;10.580;2023-06-22T03:05:23;14.80;99.90
4279;DHT22;2153;47.744;10.580;2023-06-22T03:07:49;14.80;99.90
4279;DHT22;2153;47.744;10.580;2023-06-22T03:10:17;14.80;99.90
4279;DHT22;2153;47.744;10.580;2023-06-22T03:12:44;14.90;99.90
4279;DHT22;2153;47.744;10.580;2023-06-22T03:15:12;14.80;99.90
4279;DHT22;2153;47.744;10.580;2023-06-22T03:17:39;14.70;99.90
4279;DHT22;2153;47.744;10.580;2023-06-22T03:20:07;14.60;99.90
4279;DHT22;2153;47.744;10.580;2023-06-22T03:22:36;14.60;99.90
4279;DHT22;2153;47.744;10.580;2023-06-22T03:25:03;14.60;99.90
4279;DHT22;2153;47.744;10.580;2023-06-22T03:27:31;14.60;99.90
4279;DHT22;2153;47.744;10.580;2023-06-22T03:29:57;14.60;99.90
4279;DHT22;2153;47.744;10.580;2023-06-22T03:32:24;14.50;99.90
4279;DHT22;2153;47.744;10.580;2023-06-22T03:34:53;14.60;99.90
4279;DHT22;2153;47.744;10.580;2023-06-22T03:37:20;14.60;99.90
4279;DHT22;2153;47.744;10.580;2023-06-22T03:39:46;14.60;99.90
4279;DHT22;2153;47.744;10.580;2023-06-22T03:42:13;14.60;99.90
4279;DHT22;2153;47.744;10.580;2023-06-22T03:44:41;14.60;99.90
4279;DHT22;2153;47.744;10.580;2023-06-22T03:47:07;14.50;99.90
4279;DHT22;2153;47.744;10.580;2023-06-22T03:49:35;14.50;99.90
4279;DHT22;2153;47.744;10.580;2023-06-22T03:52:02;14.40;99.90
4279;DHT22;2153;47.744;10.580;2023-06-22T03:54:29;14.30;99.90
4279;DHT22;2153;47.744;10.580;2023-06-22T03:56:57;14.30;99.90
4279;DHT22;2153;47.744;10.580;2023-06-22T03:59:24;14.30;99.90
4279;DHT22;2153;47.744;10.580;2023-06-22T04:01:52;14.40;99.90
4279;DHT22;2153;47.744;10.580;2023-06-22T04:04:18;14.40;99.90
4279;DHT22;2153;47.744;10.580;2023-06-22T04:06:45;14.50;99.90
4279;DHT22;2153;47.744;10.580;2023-06-22T04:09:12;14.60;99.90
4279;DHT22;2153;47.744;10.580;2023-06-22T04:11:39;14.70;99.90
4279;DHT22;2153;47.744;10.580;2023-06-22T04:14:05;14.80;99.90
4279;DHT22;2153;47.744;10.580;2023-06-22T04:16:32;14.80;99.90
4279;DHT22;2153;47.744;10.580;2023-06-22T04:19:00;14.80;99.90
4279;DHT22;2153;47.744;10.580;2023-06-22T04:21:27;14.90;99.90
4279;DHT22;2153;47.744;10.580;2023-06-22T04:23:54;15.00;99.90
4279;DHT22;2153;47.744;10.580;2023-06-22T04:26:20;15.10;99.90
4279;DHT22;2153;47.744;10.580;2023-06-22T04:28:47;15.20;99.90
4279;DHT22;2153;47.744;10.580;2023-06-22T04:31:16;15.30;99.90
4279;DHT22;2153;47.744;10.580;2023-06-22T04:33:43;15.50;99.90
4279;DHT22;2153;47.744;10.580;2023-06-22T04:36:11;15.60;99.90
4279;DHT22;2153;47.744;10.580;2023-06-22T04:38:38;15.60;99.90
4279;DHT22;2153;47.744;10.580;2023-06-22T04:41:05;15.60;99.90
4279;DHT22;2153;47.744;10.580;2023-06-22T04:43:33;15.70;99.90
4279;DHT22;2153;47.744;10.580;2023-06-22T04:46:00;15.70;99.90
4279;DHT22;2153;47.744;10.580;2023-06-22T04:48:29;15.80;99.90
4279;DHT22;2153;47.744;10.580;2023-06-22T04:50:58;15.90;99.90
4279;DHT22;2153;47.744;10.580;2023-06-22T04:53:31;15.90;99.90
4279;DHT22;2153;47.744;10.580;2023-06-22T04:55:58;16.10;99.90
4279;DHT22;2153;47.744;10.580;2023-06-22T04:58:24;16.20;99.90
4279;DHT22;2153;47.744;10.580;2023-06-22T05:00:54;16.40;99.90
4279;DHT22;2153;47.744;10.580;2023-06-22T05:03:22;16.50;99.90
4279;DHT22;2153;47.744;10.580;2023-06-22T05:05:51;16.50;99.90
4279;DHT22;2153;47.744;10.580;2023-06-22T05:08:18;16.70;99.90
4279;DHT22;2153;47.744;10.580;2023-06-22T05:10:46;17.00;99.90
4279;DHT22;2153;47.744;10.580;2023-06-22T05:13:12;17.20;99.90
4279;DHT22;2153;47.744;10.580;2023-06-22T05:15:39;17.30;99.90
4279;DHT22;2153;47.744;10.580;2023-06-22T05:18:06;17.60;99.90
4279;DHT22;2153;47.744;10.580;2023-06-22T05:20:32;17.70;99.90
4279;DHT22;2153;47.744;10.580;2023-06-22T05:23:01;17.90;99.90
4279;DHT22;2153;47.744;10.580;2023-06-22T05:25:28;18.00;99.90
4279;DHT22;2153;47.744;10.580;2023-06-22T05:27:59;18.20;99.90
4279;DHT22;2153;47.744;10.580;2023-06-22T05:30:27;18.40;99.90
4279;DHT22;2153;47.744;10.580;2023-06-22T05:32:53;18.70;99.90
4279;DHT22;2153;47.744;10.580;2023-06-22T05:35:20;18.70;99.90
4279;DHT22;2153;47.744;10.580;2023-06-22T05:37:46;18.80;99.90
4279;DHT22;2153;47.744;10.580;2023-06-22T05:40:13;18.80;99.90
4279;DHT22;2153;47.744;10.580;2023-06-22T05:42:40;19.00;99.90
4279;DHT22;2153;47.744;10.580;2023-06-22T05:45:09;19.10;99.90
4279;DHT22;2153;47.744;10.580;2023-06-22T05:47:35;19.20;99.90
4279;DHT22;2153;47.744;10.580;2023-06-22T05:50:02;19.40;99.90
4279;DHT22;2153;47.744;10.580;2023-06-22T05:52:32;19.60;99.90
4279;DHT22;2153;47.744;10.580;2023-06-22T05:54:58;19.80;99.90
4279;DHT22;2153;47.744;10.580;2023-06-22T05:57:25;20.10;99.90
4279;DHT22;2153;47.744;10.580;2023-06-22T05:59:52;20.30;99.90
4279;DHT22;2153;47.744;10.580;2023-06-22T06:02:20;20.60;99.90
4279;DHT22;2153;47.744;10.580;2023-06-22T06:04:47;20.80;99.90
4279;DHT22;2153;47.744;10.580;2023-06-22T06:07:16;20.90;99.90
4279;DHT22;2153;47.744;10.580;2023-06-22T06:09:43;21.00;99.90
4279;DHT22;2153;47.744;10.580;2023-06-22T06:12:09;21.10;99.90
4279;DHT22;2153;47.744;10.580;2023-06-22T06:14:36;21.40;99.90
4279;DHT22;2153;47.744;10.580;2023-06-22T06:17:03;21.50;99.90
4279;DHT22;2153;47.744;10.580;2023-06-22T06:19:31;21.50;99.90
4279;DHT22;2153;47.744;10.580;2023-06-22T06:21:57;21.60;99.90
4279;DHT22;2153;47.744;10.580;2023-06-22T06:24:24;21.80;99.90
4279;DHT22;2153;47.744;10.580;2023-06-22T06:26:51;21.70;99.90
4279;DHT22;2153;47.744;10.580;2023-06-22T06:29:17;21.90;99.90
4279;DHT22;2153;47.744;10.580;2023-06-22T06:31:44;22.20;99.90
4279;DHT22;2153;47.744;10.580;2023-06-22T06:34:11;22.30;99.90
4279;DHT22;2153;47.744;10.580;2023-06-22T06:36:38;22.30;99.90
4279;DHT22;2153;47.744;10.580;2023-06-22T06:39:05;22.30;99.90
4279;DHT22;2153;47.744;10.580;2023-06-22T06:41:32;22.50;99.90
4279;DHT22;2153;47.744;10.580;2023-06-22T06:43:58;22.90;99.90
4279;DHT22;2153;47.744;10.580;2023-06-22T06:46:25;23.00;99.90
4279;DHT22;2153;47.744;10.580;2023-06-22T06:48:52;23.20;99.90
4279;DHT22;2153;47.744;10.580;2023-06-22T06:51:19;23.20;99.90
4279;DHT22;2153;47.744;10.580;2023-06-22T06:53:47;23.50;99.90
4279;DHT22;2153;47.744;10.580;2023-06-22T06:56:13;23.90;99.90
4279;DHT22;2153;47.744;10.580;2023-06-22T06:58:41;24.30;99.90
4279;DHT22;2153;47.744;10.580;2023-06-22T07:01:10;24.50;99.90
4279;DHT22;2153;47.744;10.580;2023-06-22T07:03:37;24.40;99.90
4279;DHT22;2153;47.744;10.580;2023-06-22T07:06:03;24.30;99.90
4279;DHT22;2153;47.744;10.580;2023-06-22T07:08:30;24.50;99.90
4279;DHT22;2153;47.744;10.580;2023-06-22T07:10:58;24.70;99.90
4279;DHT22;2153;47.744;10.580;2023-06-22T07:13:26;25.00;99.90
4279;DHT22;2153;47.744;10.580;2023-06-22T07:15:52;25.50;99.90
4279;DHT22;2153;47.744;10.580;2023-06-22T07:18:19;25.90;99.90
4279;DHT22;2153;47.744;10.580;2023-06-22T07:20:46;25.80;99.90
4279;DHT22;2153;47.744;10.580;2023-06-22T07:23:12;25.90;99.90
4279;DHT22;2153;47.744;10.580;2023-06-22T07:25:39;25.20;99.90
4279;DHT22;2153;47.744;10.580;2023-06-22T07:28:07;25.70;99.90
4279;DHT22;2153;47.744;10.580;2023-06-22T07:30:34;26.00;99.90
4279;DHT22;2153;47.744;10.580;2023-06-22T07:33:01;25.80;99.90
4279;DHT22;2153;47.744;10.580;2023-06-22T07:35:29;25.90;99.90
4279;DHT22;2153;47.744;10.580;2023-06-22T07:37:56;25.90;99.90
4279;DHT22;2153;47.744;10.580;2023-06-22T07:40:23;26.10;99.90
4279;DHT22;2153;47.744;10.580;2023-06-22T07:42:49;26.50;99.90
4279;DHT22;2153;47.744;10.580;2023-06-22T07:45:18;26.70;99.90
4279;DHT22;2153;47.744;10.580;2023-06-22T07:47:45;26.40;99.90
4279;DHT22;2153;47.744;10.580;2023-06-22T07:50:12;26.90;99.90
4279;DHT22;2153;47.744;10.580;2023-06-22T07:52:38;27.50;99.90
4279;DHT22;2153;47.744;10.580;2023-06-22T07:55:05;28.00;99.90
4279;DHT22;2153;47.744;10.580;2023-06-22T07:57:32;28.20;99.90
4279;DHT22;2153;47.744;10.580;2023-06-22T08:00:00;28.30;99.90
4279;DHT22;2153;47.744;10.580;2023-06-22T08:02:27;28.50;99.90
4279;DHT22;2153;47.744;10.580;2023-06-22T08:04:54;28.40;99.90
4279;DHT22;2153;47.744;10.580;2023-06-22T08:07:21;28.40;99.90
4279;DHT22;2153;47.744;10.580;2023-06-22T08:09:48;28.40;99.90
4279;DHT22;2153;47.744;10.580;2023-06-22T08:12:15;28.60;99.90
4279;DHT22;2153;47.744;10.580;2023-06-22T08:14:42;28.60;99.90
4279;DHT22;2153;47.744;10.580;2023-06-22T08:17:09;28.80;99.90
4279;DHT22;2153;47.744;10.580;2023-06-22T08:19:39;29.00;99.90
4279;DHT22;2153;47.744;10.580;2023-06-22T08:22:06;29.40;99.90
4279;DHT22;2153;47.744;10.580;2023-06-22T08:24:32;29.20;99.90
4279;DHT22;2153;47.744;10.580;2023-06-22T08:26:59;28.80;99.90
4279;DHT22;2153;47.744;10.580;2023-06-22T08:29:26;29.00;99.90
4279;DHT22;2153;47.744;10.580;2023-06-22T08:31:52;29.40;99.90
4279;DHT22;2153;47.744;10.580;2023-06-22T08:34:19;29.40;99.90
4279;DHT22;2153;47.744;10.580;2023-06-22T08:36:51;29.20;99.90
4279;DHT22;2153;47.744;10.580;2023-06-22T08:39:18;29.30;99.90
4279;DHT22;2153;47.744;10.580;2023-06-22T08:41:45;29.20;99.90
4279;DHT22;2153;47.744;10.580;2023-06-22T08:44:12;29.20;99.90
4279;DHT22;2153;47.744;10.580;2023-06-22T08:46:39;29.60;99.90
4279;DHT22;2153;47.744;10.580;2023-06-22T08:49:07;29.70;99.90
4279;DHT22;2153;47.744;10.580;2023-06-22T08:51:35;29.90;99.90
4279;DHT22;2153;47.744;10.580;2023-06-22T08:54:03;30.40;99.90
4279;DHT22;2153;47.744;10.580;2023-06-22T08:56:30;30.60;99.90
4279;DHT22;2153;47.744;10.580;2023-06-22T08:58:56;30.80;99.90
4279;DHT22;2153;47.744;10.580;2023-06-22T09:01:23;31.30;99.90
4279;DHT22;2153;47.744;10.580;2023-06-22T09:03:50;31.40;99.90
4279;DHT22;2153;47.744;10.580;2023-06-22T09:06:23;31.50;99.90
4279;DHT22;2153;47.744;10.580;2023-06-22T09:08:49;31.20;99.90
4279;DHT22;2153;47.744;10.580;2023-06-22T09:11:17;31.70;99.90
4279;DHT22;2153;47.744;10.580;2023-06-22T09:13:44;32.20;99.90
4279;DHT22;2153;47.744;10.580;2023-06-22T09:16:11;32.60;99.90
4279;DHT22;2153;47.744;10.580;2023-06-22T09:18:38;32.70;99.90
4279;DHT22;2153;47.744;10.580;2023-06-22T09:21:04;32.60;89.90
4279;DHT22;2153;47.744;10.580;2023-06-22T09:23:31;32.60;99.10
4279;DHT22;2153;47.744;10.580;2023-06-22T09:25:58;32.20;95.10
4279;DHT22;2153;47.744;10.580;2023-06-22T09:28:26;32.40;99.90
4279;DHT22;2153;47.744;10.580;2023-06-22T09:30:52;32.80;98.00
4279;DHT22;2153;47.744;10.580;2023-06-22T09:33:23;33.30;99.90
4279;DHT22;2153;47.744;10.580;2023-06-22T09:35:50;33.10;95.40
4279;DHT22;2153;47.744;10.580;2023-06-22T09:38:17;33.50;99.90
4279;DHT22;2153;47.744;10.580;2023-06-22T09:40:43;33.90;80.50
4279;DHT22;2153;47.744;10.580;2023-06-22T09:43:11;34.20;98.80
4279;DHT22;2153;47.744;10.580;2023-06-22T09:45:39;33.90;71.60
4279;DHT22;2153;47.744;10.580;2023-06-22T09:48:06;34.10;52.20
4279;DHT22;2153;47.744;10.580;2023-06-22T09:50:32;34.40;66.70
4279;DHT22;2153;47.744;10.580;2023-06-22T09:52:59;34.00;70.20
4279;DHT22;2153;47.744;10.580;2023-06-22T09:55:25;33.70;96.30
4279;DHT22;2153;47.744;10.580;2023-06-22T09:57:52;33.60;98.40
4279;DHT22;2153;47.744;10.580;2023-06-22T10:00:20;33.10;97.20
4279;DHT22;2153;47.744;10.580;2023-06-22T10:02:48;32.90;99.90
4279;DHT22;2153;47.744;10.580;2023-06-22T10:05:16;32.90;95.20
4279;DHT22;2153;47.744;10.580;2023-06-22T10:07:42;32.90;99.90
4279;DHT22;2153;47.744;10.580;2023-06-22T10:10:09;32.90;94.60
4279;DHT22;2153;47.744;10.580;2023-06-22T10:12:36;32.80;82.80
4279;DHT22;2153;47.744;10.580;2023-06-22T10:15:03;33.20;99.90
4279;DHT22;2153;47.744;10.580;2023-06-22T10:17:30;33.70;82.40
4279;DHT22;2153;47.744;10.580;2023-06-22T10:19:58;34.30;76.40
4279;DHT22;2153;47.744;10.580;2023-06-22T10:22:26;34.50;76.80
4279;DHT22;2153;47.744;10.580;2023-06-22T10:24:52;34.40;63.50
4279;DHT22;2153;47.744;10.580;2023-06-22T10:27:19;34.00;47.90
4279;DHT22;2153;47.744;10.580;2023-06-22T10:29:46;33.70;49.80
4279;DHT22;2153;47.744;10.580;2023-06-22T10:32:12;33.90;32.50
4279;DHT22;2153;47.744;10.580;2023-06-22T10:34:39;34.40;75.90
4279;DHT22;2153;47.744;10.580;2023-06-22T10:37:07;34.60;20.40
4279;DHT22;2153;47.744;10.580;2023-06-22T10:39:34;34.50;31.30
4279;DHT22;2153;47.744;10.580;2023-06-22T10:42:00;34.00;25.10
4279;DHT22;2153;47.744;10.580;2023-06-22T10:44:27;33.60;27.70
4279;DHT22;2153;47.744;10.580;2023-06-22T10:46:54;33.20;47.60
4279;DHT22;2153;47.744;10.580;2023-06-22T10:49:20;32.80;64.20
4279;DHT22;2153;47.744;10.580;2023-06-22T10:51:47;33.10;85.40
4279;DHT22;2153;47.744;10.580;2023-06-22T10:54:15;33.90;61.60
4279;DHT22;2153;47.744;10.580;2023-06-22T10:56:43;34.30;61.10
4279;DHT22;2153;47.744;10.580;2023-06-22T10:59:10;34.60;31.50
4279;DHT22;2153;47.744;10.580;2023-06-22T11:01:36;35.40;29.20
4279;DHT22;2153;47.744;10.580;2023-06-22T11:04:03;35.60;20.50
4279;DHT22;2153;47.744;10.580;2023-06-22T11:06:30;35.60;1.00
4279;DHT22;2153;47.744;10.580;2023-06-22T11:08:57;35.90;28.10
4279;DHT22;2153;47.744;10.580;2023-06-22T11:11:25;36.20;16.90
4279;DHT22;2153;47.744;10.580;2023-06-22T11:13:52;36.20;1.00
4279;DHT22;2153;47.744;10.580;2023-06-22T11:16:19;35.80;1.00
4279;DHT22;2153;47.744;10.580;2023-06-22T11:18:45;35.80;1.00
4279;DHT22;2153;47.744;10.580;2023-06-22T11:21:12;35.70;4.30
4279;DHT22;2153;47.744;10.580;2023-06-22T11:23:39;35.50;1.00
4279;DHT22;2153;47.744;10.580;2023-06-22T11:26:05;35.60;1.00
4279;DHT22;2153;47.744;10.580;2023-06-22T11:28:33;35.70;1.00
4279;DHT22;2153;47.744;10.580;2023-06-22T11:31:00;35.70;1.00
4279;DHT22;2153;47.744;10.580;2023-06-22T11:33:27;35.60;1.00
4279;DHT22;2153;47.744;10.580;2023-06-22T11:35:53;35.70;1.70
4279;DHT22;2153;47.744;10.580;2023-06-22T11:38:21;35.70;1.00
4279;DHT22;2153;47.744;10.580;2023-06-22T11:40:48;35.90;1.00
4279;DHT22;2153;47.744;10.580;2023-06-22T11:43:15;35.70;1.00
4279;DHT22;2153;47.744;10.580;2023-06-22T11:45:43;35.40;1.00
4279;DHT22;2153;47.744;10.580;2023-06-22T11:48:09;35.30;1.00
4279;DHT22;2153;47.744;10.580;2023-06-22T11:50:36;35.10;1.00
4279;DHT22;2153;47.744;10.580;2023-06-22T11:53:03;35.00;1.00
4279;DHT22;2153;47.744;10.580;2023-06-22T11:55:29;34.70;1.00
4279;DHT22;2153;47.744;10.580;2023-06-22T11:57:57;34.70;1.00
4279;DHT22;2153;47.744;10.580;2023-06-22T12:00:27;35.00;1.00
4279;DHT22;2153;47.744;10.580;2023-06-22T12:02:56;35.30;1.00
4279;DHT22;2153;47.744;10.580;2023-06-22T12:05:23;35.50;1.00
4279;DHT22;2153;47.744;10.580;2023-06-22T12:07:50;35.30;1.00
4279;DHT22;2153;47.744;10.580;2023-06-22T12:10:18;35.20;1.00
4279;DHT22;2153;47.744;10.580;2023-06-22T12:12:44;35.10;1.00
4279;DHT22;2153;47.744;10.580;2023-06-22T12:15:11;34.80;1.00
4279;DHT22;2153;47.744;10.580;2023-06-22T12:17:38;34.40;1.00
4279;DHT22;2153;47.744;10.580;2023-06-22T12:20:07;34.30;1.00
4279;DHT22;2153;47.744;10.580;2023-06-22T12:22:34;34.10;1.00
4279;DHT22;2153;47.744;10.580;2023-06-22T12:25:03;33.90;1.00
4279;DHT22;2153;47.744;10.580;2023-06-22T12:27:30;33.80;1.00
4279;DHT22;2153;47.744;10.580;2023-06-22T12:29:56;33.90;1.00
4279;DHT22;2153;47.744;10.580;2023-06-22T12:32:23;33.90;1.00
4279;DHT22;2153;47.744;10.580;2023-06-22T12:34:51;33.90;1.00
4279;DHT22;2153;47.744;10.580;2023-06-22T12:37:19;33.80;1.00
4279;DHT22;2153;47.744;10.580;2023-06-22T12:39:45;33.50;1.00
4279;DHT22;2153;47.744;10.580;2023-06-22T12:42:12;33.30;1.00
4279;DHT22;2153;47.744;10.580;2023-06-22T12:44:39;33.20;1.00
4279;DHT22;2153;47.744;10.580;2023-06-22T12:47:06;33.20;1.00
4279;DHT22;2153;47.744;10.580;2023-06-22T12:49:33;33.30;1.00
4279;DHT22;2153;47.744;10.580;2023-06-22T12:52:00;33.30;1.00
4279;DHT22;2153;47.744;10.580;2023-06-22T12:54:28;33.10;1.00
4279;DHT22;2153;47.744;10.580;2023-06-22T12:56:56;32.80;1.00
4279;DHT22;2153;47.744;10.580;2023-06-22T12:59:22;32.60;1.00
4279;DHT22;2153;47.744;10.580;2023-06-22T13:01:49;32.70;1.00
4279;DHT22;2153;47.744;10.580;2023-06-22T13:04:16;32.90;1.00
4279;DHT22;2153;47.744;10.580;2023-06-22T13:06:43;32.90;1.00
4279;DHT22;2153;47.744;10.580;2023-06-22T13:09:13;32.80;1.00
4279;DHT22;2153;47.744;10.580;2023-06-22T13:11:41;32.90;1.00
4279;DHT22;2153;47.744;10.580;2023-06-22T13:14:08;33.00;1.00
4279;DHT22;2153;47.744;10.580;2023-06-22T13:16:34;33.30;1.00
4279;DHT22;2153;47.744;10.580;2023-06-22T13:19:01;33.60;1.00
4279;DHT22;2153;47.744;10.580;2023-06-22T13:21:28;33.90;1.00
4279;DHT22;2153;47.744;10.580;2023-06-22T13:23:54;34.20;1.00
4279;DHT22;2153;47.744;10.580;2023-06-22T13:26:21;34.60;1.00
4279;DHT22;2153;47.744;10.580;2023-06-22T13:28:49;34.90;1.00
4279;DHT22;2153;47.744;10.580;2023-06-22T13:31:16;35.00;1.00
4279;DHT22;2153;47.744;10.580;2023-06-22T13:33:43;35.20;1.00
4279;DHT22;2153;47.744;10.580;2023-06-22T13:36:13;35.20;1.00
4279;DHT22;2153;47.744;10.580;2023-06-22T13:38:39;35.20;1.00
4279;DHT22;2153;47.744;10.580;2023-06-22T13:41:06;35.30;1.00
4279;DHT22;2153;47.744;10.580;2023-06-22T13:43:33;35.40;1.00
4279;DHT22;2153;47.744;10.580;2023-06-22T13:46:01;35.30;1.00
4279;DHT22;2153;47.744;10.580;2023-06-22T13:48:27;35.00;1.00
4279;DHT22;2153;47.744;10.580;2023-06-22T13:50:54;34.90;1.00
4279;DHT22;2153;47.744;10.580;2023-06-22T13:53:21;34.90;1.00
4279;DHT22;2153;47.744;10.580;2023-06-22T13:55:47;35.00;1.00
4279;DHT22;2153;47.744;10.580;2023-06-22T13:58:14;34.80;1.00
4279;DHT22;2153;47.744;10.580;2023-06-22T14:00:41;34.70;1.00
4279;DHT22;2153;47.744;10.580;2023-06-22T14:03:09;34.30;1.00
4279;DHT22;2153;47.744;10.580;2023-06-22T14:05:35;34.40;1.00
4279;DHT22;2153;47.744;10.580;2023-06-22T14:08:02;34.70;1.00
4279;DHT22;2153;47.744;10.580;2023-06-22T14:10:29;34.80;1.00
4279;DHT22;2153;47.744;10.580;2023-06-22T14:12:55;35.00;1.00
4279;DHT22;2153;47.744;10.580;2023-06-22T14:15:22;35.20;1.00
4279;DHT22;2153;47.744;10.580;2023-06-22T14:17:48;35.00;1.00
4279;DHT22;2153;47.744;10.580;2023-06-22T14:20:16;34.40;1.00
4279;DHT22;2153;47.744;10.580;2023-06-22T14:22:43;34.40;1.00
4279;DHT22;2153;47.744;10.580;2023-06-22T14:25:10;34.30;1.00
4279;DHT22;2153;47.744;10.580;2023-06-22T14:27:36;34.30;1.00
4279;DHT22;2153;47.744;10.580;2023-06-22T14:30:04;34.30;1.00
4279;DHT22;2153;47.744;10.580;2023-06-22T14:32:30;34.30;1.00
4279;DHT22;2153;47.744;10.580;2023-06-22T14:34:57;34.40;1.00
4279;DHT22;2153;47.744;10.580;2023-06-22T14:37:25;34.40;1.00
4279;DHT22;2153;47.744;10.580;2023-06-22T14:39:52;33.80;1.00
4279;DHT22;2153;47.744;10.580;2023-06-22T14:42:18;33.40;1.00
4279;DHT22;2153;47.744;10.580;2023-06-22T14:44:45;33.10;1.00
4279;DHT22;2153;47.744;10.580;2023-06-22T14:47:11;32.90;1.00
4279;DHT22;2153;47.744;10.580;2023-06-22T14:49:39;32.70;1.00
4279;DHT22;2153;47.744;10.580;2023-06-22T14:52:06;32.70;1.00
4279;DHT22;2153;47.744;10.580;2023-06-22T14:54:35;32.60;1.00
4279;DHT22;2153;47.744;10.580;2023-06-22T14:57:01;32.70;1.00
4279;DHT22;2153;47.744;10.580;2023-06-22T14:59:28;33.00;1.00
4279;DHT22;2153;47.744;10.580;2023-06-22T15:01:55;33.20;1.00
4279;DHT22;2153;47.744;10.580;2023-06-22T15:04:22;33.20;1.00
4279;DHT22;2153;47.744;10.580;2023-06-22T15:06:48;33.10;1.00
4279;DHT22;2153;47.744;10.580;2023-06-22T15:09:15;32.80;1.00
4279;DHT22;2153;47.744;10.580;2023-06-22T15:11:43;32.70;1.00
4279;DHT22;2153;47.744;10.580;2023-06-22T15:14:10;32.70;1.00
4279;DHT22;2153;47.744;10.580;2023-06-22T15:16:39;32.70;1.00
4279;DHT22;2153;47.744;10.580;2023-06-22T15:19:06;32.50;1.00
4279;DHT22;2153;47.744;10.580;2023-06-22T15:21:32;32.40;1.00
4279;DHT22;2153;47.744;10.580;2023-06-22T15:23:59;32.40;10.10
4279;DHT22;2153;47.744;10.580;2023-06-22T15:26:26;32.20;12.70
4279;DHT22;2153;47.744;10.580;2023-06-22T15:28:54;32.00;1.00
4279;DHT22;2153;47.744;10.580;2023-06-22T15:31:21;31.80;1.00
4279;DHT22;2153;47.744;10.580;2023-06-22T15:33:48;31.80;1.00
4279;DHT22;2153;47.744;10.580;2023-06-22T15:36:14;31.70;1.00
4279;DHT22;2153;47.744;10.580;2023-06-22T15:38:41;31.80;2.70
4279;DHT22;2153;47.744;10.580;2023-06-22T15:41:08;31.50;2.80
4279;DHT22;2153;47.744;10.580;2023-06-22T15:43:34;31.30;18.10
4279;DHT22;2153;47.744;10.580;2023-06-22T15:46:02;31.10;46.50
4279;DHT22;2153;47.744;10.580;2023-06-22T15:48:29;30.90;72.60
4279;DHT22;2153;47.744;10.580;2023-06-22T15:50:55;30.50;93.20